Aviation Digital Data Service (ADDS)

Output produced by METARs form (1821 UTC 19 August 2019)
found at http://www.aviationweather.gov/metar/data/
 
METAR text: ESKN 191750Z 27003KT CAVOK 18/12 Q1010
Conditions at: ESKN (SKAVSTA/STOCKHO , SE) observed 1750 UTC 19 August 2019
Temperature: 18.0°C (64°F)
Dewpoint: 12.0°C (54°F) [RH = 68%]
Pressure (altimeter): 29.82 inches Hg (1010.0 mb)
Winds: from the W (270 degrees) at 3 MPH (3 knots; 1.5 m/s)
Visibility: 6 or more miles (10+ km)
Ceiling: ceiling and visibility are OK
Clouds: unknown
Weather: no significant weather observed at this time

METAR text: ESKN 191720Z 30005KT 270V340 9999 FEW049 SCT088 20/12 Q1010
Conditions at: ESKN (SKAVSTA/STOCKHO , SE) observed 1720 UTC 19 August 2019
Temperature: 20.0°C (68°F)
Dewpoint: 12.0°C (54°F) [RH = 60%]
Pressure (altimeter): 29.82 inches Hg (1010.0 mb)
Winds: from the WNW (300 degrees) at 6 MPH (5 knots; 2.6 m/s)
Visibility: 6 or more miles (10+ km)
Ceiling: at least 12,000 feet AGL
Clouds: few clouds at 4900 feet AGL
scattered clouds at 8800 feet AGL
Weather: no significant weather observed at this time

METAR text: ESKN 191650Z 23007KT CAVOK 20/11 Q1010
Conditions at: ESKN (SKAVSTA/STOCKHO , SE) observed 1650 UTC 19 August 2019
Temperature: 20.0°C (68°F)
Dewpoint: 11.0°C (52°F) [RH = 56%]
Pressure (altimeter): 29.82 inches Hg (1010.0 mb)
Winds: from the SW (230 degrees) at 8 MPH (7 knots; 3.6 m/s)
Visibility: 6 or more miles (10+ km)
Ceiling: ceiling and visibility are OK
Clouds: unknown
Weather: no significant weather observed at this time

METAR text: ESKN 191620Z 23009KT 9999 VCSH FEW064CB 20/10 Q1009
Conditions at: ESKN (SKAVSTA/STOCKHO , SE) observed 1620 UTC 19 August 2019
Temperature: 20.0°C (68°F)
Dewpoint: 10.0°C (50°F) [RH = 53%]
Pressure (altimeter): 29.79 inches Hg (1009.0 mb)
Winds: from the SW (230 degrees) at 10 MPH (9 knots; 4.6 m/s)
Visibility: 6 or more miles (10+ km)
Ceiling: at least 12,000 feet AGL
Clouds: few clouds at 6400 feet AGL
Weather: VCSH  (showers in vicinity)

METAR text: ESKN 191550Z 25010KT 9999 VCSH FEW055CB 21/10 Q1009
Conditions at: ESKN (SKAVSTA/STOCKHO , SE) observed 1550 UTC 19 August 2019
Temperature: 21.0°C (70°F)
Dewpoint: 10.0°C (50°F) [RH = 49%]
Pressure (altimeter): 29.79 inches Hg (1009.0 mb)
Winds: from the WSW (250 degrees) at 12 MPH (10 knots; 5.1 m/s)
Visibility: 6 or more miles (10+ km)
Ceiling: at least 12,000 feet AGL
Clouds: few clouds at 5500 feet AGL
Weather: VCSH  (showers in vicinity)

METAR text: ESKN 191520Z 25013KT 9999 VCSH SCT055TCU 21/09 Q1009
Conditions at: ESKN (SKAVSTA/STOCKHO , SE) observed 1520 UTC 19 August 2019
Temperature: 21.0°C (70°F)
Dewpoint: 9.0°C (48°F) [RH = 46%]
Pressure (altimeter): 29.79 inches Hg (1009.0 mb)
Winds: from the WSW (250 degrees) at 15 MPH (13 knots; 6.7 m/s)
Visibility: 6 or more miles (10+ km)
Ceiling: at least 12,000 feet AGL
Clouds: scattered clouds at 5500 feet AGL
Weather: VCSH  (showers in vicinity)

METAR text: ESKN 191450Z 22007KT CAVOK 21/10 Q1009
Conditions at: ESKN (SKAVSTA/STOCKHO , SE) observed 1450 UTC 19 August 2019
Temperature: 21.0°C (70°F)
Dewpoint: 10.0°C (50°F) [RH = 49%]
Pressure (altimeter): 29.79 inches Hg (1009.0 mb)
Winds: from the SW (220 degrees) at 8 MPH (7 knots; 3.6 m/s)
Visibility: 6 or more miles (10+ km)
Ceiling: ceiling and visibility are OK
Clouds: unknown
Weather: no significant weather observed at this time

METAR text: ESKN 191420Z 23010KT 170V250 CAVOK 22/10 Q1009
Conditions at: ESKN (SKAVSTA/STOCKHO , SE) observed 1420 UTC 19 August 2019
Temperature: 22.0°C (72°F)
Dewpoint: 10.0°C (50°F) [RH = 46%]
Pressure (altimeter): 29.79 inches Hg (1009.0 mb)
Winds: from the SW (230 degrees) at 12 MPH (10 knots; 5.1 m/s)
Visibility: 6 or more miles (10+ km)
Ceiling: ceiling and visibility are OK
Clouds: unknown
Weather: no significant weather observed at this time

METAR text: ESKN 191350Z 24010KT 210V270 CAVOK 21/09 Q1009
Conditions at: ESKN (SKAVSTA/STOCKHO , SE) observed 1350 UTC 19 August 2019
Temperature: 21.0°C (70°F)
Dewpoint: 9.0°C (48°F) [RH = 46%]
Pressure (altimeter): 29.79 inches Hg (1009.0 mb)
Winds: from the WSW (240 degrees) at 12 MPH (10 knots; 5.1 m/s)
Visibility: 6 or more miles (10+ km)
Ceiling: ceiling and visibility are OK
Clouds: unknown
Weather: no significant weather observed at this time

METAR text: ESKN 191320Z 23013KT CAVOK 21/10 Q1009
Conditions at: ESKN (SKAVSTA/STOCKHO , SE) observed 1320 UTC 19 August 2019
Temperature: 21.0°C (70°F)
Dewpoint: 10.0°C (50°F) [RH = 49%]
Pressure (altimeter): 29.79 inches Hg (1009.0 mb)
Winds: from the SW (230 degrees) at 15 MPH (13 knots; 6.7 m/s)
Visibility: 6 or more miles (10+ km)
Ceiling: ceiling and visibility are OK
Clouds: unknown
Weather: no significant weather observed at this time

METAR text: ESKN 191250Z 25014KT 9999 SCT048 21/10 Q1008
Conditions at: ESKN (SKAVSTA/STOCKHO , SE) observed 1250 UTC 19 August 2019
Temperature: 21.0°C (70°F)
Dewpoint: 10.0°C (50°F) [RH = 49%]
Pressure (altimeter): 29.76 inches Hg (1008.0 mb)
Winds: from the WSW (250 degrees) at 16 MPH (14 knots; 7.2 m/s)
Visibility: 6 or more miles (10+ km)
Ceiling: at least 12,000 feet AGL
Clouds: scattered clouds at 4800 feet AGL
Weather: no significant weather observed at this time

METAR text: ESKN 191220Z 24014KT 9999 SCT045 21/10 Q1008
Conditions at: ESKN (SKAVSTA/STOCKHO , SE) observed 1220 UTC 19 August 2019
Temperature: 21.0°C (70°F)
Dewpoint: 10.0°C (50°F) [RH = 49%]
Pressure (altimeter): 29.76 inches Hg (1008.0 mb)
Winds: from the WSW (240 degrees) at 16 MPH (14 knots; 7.2 m/s)
Visibility: 6 or more miles (10+ km)
Ceiling: at least 12,000 feet AGL
Clouds: scattered clouds at 4500 feet AGL
Weather: no significant weather observed at this time

METAR text: ESKN 191150Z 25013KT 9999 SCT042 20/10 Q1008
Conditions at: ESKN (SKAVSTA/STOCKHO , SE) observed 1150 UTC 19 August 2019
Temperature: 20.0°C (68°F)
Dewpoint: 10.0°C (50°F) [RH = 53%]
Pressure (altimeter): 29.76 inches Hg (1008.0 mb)
Winds: from the WSW (250 degrees) at 15 MPH (13 knots; 6.7 m/s)
Visibility: 6 or more miles (10+ km)
Ceiling: at least 12,000 feet AGL
Clouds: scattered clouds at 4200 feet AGL
Weather: no significant weather observed at this time

METAR text: ESKN 191120Z 25013KT 210V280 9999 SCT038 20/11 Q1008
Conditions at: ESKN (SKAVSTA/STOCKHO , SE) observed 1120 UTC 19 August 2019
Temperature: 20.0°C (68°F)
Dewpoint: 11.0°C (52°F) [RH = 56%]
Pressure (altimeter): 29.76 inches Hg (1008.0 mb)
Winds: from the WSW (250 degrees) at 15 MPH (13 knots; 6.7 m/s)
Visibility: 6 or more miles (10+ km)
Ceiling: at least 12,000 feet AGL
Clouds: scattered clouds at 3800 feet AGL
Weather: no significant weather observed at this time

METAR text: ESKN 191050Z 25015KT 9999 SCT034 19/10 Q1008
Conditions at: ESKN (SKAVSTA/STOCKHO , SE) observed 1050 UTC 19 August 2019
Temperature: 19.0°C (66°F)
Dewpoint: 10.0°C (50°F) [RH = 56%]
Pressure (altimeter): 29.76 inches Hg (1008.0 mb)
Winds: from the WSW (250 degrees) at 17 MPH (15 knots; 7.7 m/s)
Visibility: 6 or more miles (10+ km)
Ceiling: at least 12,000 feet AGL
Clouds: scattered clouds at 3400 feet AGL
Weather: no significant weather observed at this time

METAR text: ESKN 191020Z 25013KT 9999 SCT031 18/11 Q1008
Conditions at: ESKN (SKAVSTA/STOCKHO , SE) observed 1020 UTC 19 August 2019
Temperature: 18.0°C (64°F)
Dewpoint: 11.0°C (52°F) [RH = 64%]
Pressure (altimeter): 29.76 inches Hg (1008.0 mb)
Winds: from the WSW (250 degrees) at 15 MPH (13 knots; 6.7 m/s)
Visibility: 6 or more miles (10+ km)
Ceiling: at least 12,000 feet AGL
Clouds: scattered clouds at 3100 feet AGL
Weather: no significant weather observed at this time

METAR text: ESKN 190950Z 25014KT 220V290 9999 SCT028 18/11 Q1007
Conditions at: ESKN (SKAVSTA/STOCKHO , SE) observed 0950 UTC 19 August 2019
Temperature: 18.0°C (64°F)
Dewpoint: 11.0°C (52°F) [RH = 64%]
Pressure (altimeter): 29.73 inches Hg (1007.0 mb)
Winds: from the WSW (250 degrees) at 16 MPH (14 knots; 7.2 m/s)
Visibility: 6 or more miles (10+ km)
Ceiling: at least 12,000 feet AGL
Clouds: scattered clouds at 2800 feet AGL
Weather: no significant weather observed at this time

METAR text: ESKN 190920Z 26013KT 230V300 9999 SCT028 18/12 Q1007
Conditions at: ESKN (SKAVSTA/STOCKHO , SE) observed 0920 UTC 19 August 2019
Temperature: 18.0°C (64°F)
Dewpoint: 12.0°C (54°F) [RH = 68%]
Pressure (altimeter): 29.73 inches Hg (1007.0 mb)
Winds: from the W (260 degrees) at 15 MPH (13 knots; 6.7 m/s)
Visibility: 6 or more miles (10+ km)
Ceiling: at least 12,000 feet AGL
Clouds: scattered clouds at 2800 feet AGL
Weather: no significant weather observed at this time

METAR text: ESKN 190850Z 26013KT 9999 SCT025 17/12 Q1007
Conditions at: ESKN (SKAVSTA/STOCKHO , SE) observed 0850 UTC 19 August 2019
Temperature: 17.0°C (63°F)
Dewpoint: 12.0°C (54°F) [RH = 72%]
Pressure (altimeter): 29.73 inches Hg (1007.0 mb)
Winds: from the W (260 degrees) at 15 MPH (13 knots; 6.7 m/s)
Visibility: 6 or more miles (10+ km)
Ceiling: at least 12,000 feet AGL
Clouds: scattered clouds at 2500 feet AGL
Weather: no significant weather observed at this time

METAR text: ESKN 190820Z 26012KT 9999 SCT024 18/13 Q1006
Conditions at: ESKN (SKAVSTA/STOCKHO , SE) observed 0820 UTC 19 August 2019
Temperature: 18.0°C (64°F)
Dewpoint: 13.0°C (55°F) [RH = 73%]
Pressure (altimeter): 29.70 inches Hg (1006.0 mb)
Winds: from the W (260 degrees) at 14 MPH (12 knots; 6.2 m/s)
Visibility: 6 or more miles (10+ km)
Ceiling: at least 12,000 feet AGL
Clouds: scattered clouds at 2400 feet AGL
Weather: no significant weather observed at this time

METAR text: ESKN 190750Z 25011KT 9999 SCT019 17/13 Q1006
Conditions at: ESKN (SKAVSTA/STOCKHO , SE) observed 0750 UTC 19 August 2019
Temperature: 17.0°C (63°F)
Dewpoint: 13.0°C (55°F) [RH = 77%]
Pressure (altimeter): 29.70 inches Hg (1006.0 mb)
Winds: from the WSW (250 degrees) at 13 MPH (11 knots; 5.7 m/s)
Visibility: 6 or more miles (10+ km)
Ceiling: at least 12,000 feet AGL
Clouds: scattered clouds at 1900 feet AGL
Weather: no significant weather observed at this time

METAR text: ESKN 190720Z 26012KT 9999 SCT019 16/13 Q1006
Conditions at: ESKN (SKAVSTA/STOCKHO , SE) observed 0720 UTC 19 August 2019
Temperature: 16.0°C (61°F)
Dewpoint: 13.0°C (55°F) [RH = 82%]
Pressure (altimeter): 29.70 inches Hg (1006.0 mb)
Winds: from the W (260 degrees) at 14 MPH (12 knots; 6.2 m/s)
Visibility: 6 or more miles (10+ km)
Ceiling: at least 12,000 feet AGL
Clouds: scattered clouds at 1900 feet AGL
Weather: no significant weather observed at this time

METAR text: ESKN 190650Z 26010KT 9999 SCT013 16/14 Q1005
Conditions at: ESKN (SKAVSTA/STOCKHO , SE) observed 0650 UTC 19 August 2019
Temperature: 16.0°C (61°F)
Dewpoint: 14.0°C (57°F) [RH = 88%]
Pressure (altimeter): 29.68 inches Hg (1005.0 mb)
Winds: from the W (260 degrees) at 12 MPH (10 knots; 5.1 m/s)
Visibility: 6 or more miles (10+ km)
Ceiling: at least 12,000 feet AGL
Clouds: scattered clouds at 1300 feet AGL
Weather: no significant weather observed at this time

METAR text: ESKN 190620Z 26010KT 9999 SCT009 15/13 Q1005
Conditions at: ESKN (SKAVSTA/STOCKHO , SE) observed 0620 UTC 19 August 2019
Temperature: 15.0°C (59°F)
Dewpoint: 13.0°C (55°F) [RH = 88%]
Pressure (altimeter): 29.68 inches Hg (1005.0 mb)
Winds: from the W (260 degrees) at 12 MPH (10 knots; 5.1 m/s)
Visibility: 6 or more miles (10+ km)
Ceiling: at least 12,000 feet AGL
Clouds: scattered clouds at 900 feet AGL
Weather: no significant weather observed at this time

METAR text: ESKN 190550Z 26008KT 9999 BKN009 15/14 Q1004
Conditions at: ESKN (SKAVSTA/STOCKHO , SE) observed 0550 UTC 19 August 2019
Temperature: 15.0°C (59°F)
Dewpoint: 14.0°C (57°F) [RH = 94%]
Pressure (altimeter): 29.65 inches Hg (1004.0 mb)
Winds: from the W (260 degrees) at 9 MPH (8 knots; 4.1 m/s)
Visibility: 6 or more miles (10+ km)
Ceiling: 900 feet AGL
Clouds: broken clouds at 900 feet AGL
Weather: no significant weather observed at this time

METAR text: ESKN 190520Z 27009KT 9999 FEW009 14/14 Q1004
Conditions at: ESKN (SKAVSTA/STOCKHO , SE) observed 0520 UTC 19 August 2019
Temperature: 14.0°C (57°F)
Dewpoint: 14.0°C (57°F) [RH = 100%]
Pressure (altimeter): 29.65 inches Hg (1004.0 mb)
Winds: from the W (270 degrees) at 10 MPH (9 knots; 4.6 m/s)
Visibility: 6 or more miles (10+ km)
Ceiling: at least 12,000 feet AGL
Clouds: few clouds at 900 feet AGL
Weather: no significant weather observed at this time

METAR text: ESKN 190450Z 25007KT 9999 SCT009 14/14 Q1004
Conditions at: ESKN (SKAVSTA/STOCKHO , SE) observed 0450 UTC 19 August 2019
Temperature: 14.0°C (57°F)
Dewpoint: 14.0°C (57°F) [RH = 100%]
Pressure (altimeter): 29.65 inches Hg (1004.0 mb)
Winds: from the WSW (250 degrees) at 8 MPH (7 knots; 3.6 m/s)
Visibility: 6 or more miles (10+ km)
Ceiling: at least 12,000 feet AGL
Clouds: scattered clouds at 900 feet AGL
Weather: no significant weather observed at this time

METAR text: ESKN 190420Z 26007KT 9999 BKN011 14/13 Q1003
Conditions at: ESKN (SKAVSTA/STOCKHO , SE) observed 0420 UTC 19 August 2019
Temperature: 14.0°C (57°F)
Dewpoint: 13.0°C (55°F) [RH = 94%]
Pressure (altimeter): 29.62 inches Hg (1003.0 mb)
Winds: from the W (260 degrees) at 8 MPH (7 knots; 3.6 m/s)
Visibility: 6 or more miles (10+ km)
Ceiling: 1100 feet AGL
Clouds: broken clouds at 1100 feet AGL
Weather: no significant weather observed at this time

METAR text: ESKN 190350Z 26008KT 9999 SCT005 13/13 Q1003
Conditions at: ESKN (SKAVSTA/STOCKHO , SE) observed 0350 UTC 19 August 2019
Temperature: 13.0°C (55°F)
Dewpoint: 13.0°C (55°F) [RH = 100%]
Pressure (altimeter): 29.62 inches Hg (1003.0 mb)
Winds: from the W (260 degrees) at 9 MPH (8 knots; 4.1 m/s)
Visibility: 6 or more miles (10+ km)
Ceiling: at least 12,000 feet AGL
Clouds: scattered clouds at 500 feet AGL
Weather: no significant weather observed at this time

METAR text: ESKN 190320Z 24005KT 9999 BKN005 OVC037 13/13 Q1003
Conditions at: ESKN (SKAVSTA/STOCKHO , SE) observed 0320 UTC 19 August 2019
Temperature: 13.0°C (55°F)
Dewpoint: 13.0°C (55°F) [RH = 100%]
Pressure (altimeter): 29.62 inches Hg (1003.0 mb)
Winds: from the WSW (240 degrees) at 6 MPH (5 knots; 2.6 m/s)
Visibility: 6 or more miles (10+ km)
Ceiling: 500 feet AGL
Clouds: broken clouds at 500 feet AGL
overcast cloud deck at 3700 feet AGL
Weather: no significant weather observed at this time

METAR text: ESKN 190250Z 26004KT 9999 FEW005 SCT044 BKN059 13/13 Q1003
Conditions at: ESKN (SKAVSTA/STOCKHO , SE) observed 0250 UTC 19 August 2019
Temperature: 13.0°C (55°F)
Dewpoint: 13.0°C (55°F) [RH = 100%]
Pressure (altimeter): 29.62 inches Hg (1003.0 mb)
Winds: from the W (260 degrees) at 5 MPH (4 knots; 2.1 m/s)
Visibility: 6 or more miles (10+ km)
Ceiling: 5900 feet AGL
Clouds: few clouds at 500 feet AGL
scattered clouds at 4400 feet AGL
broken clouds at 5900 feet AGL
Weather: no significant weather observed at this time

METAR text: ESKN 190220Z 26007KT 9999 SCT005 BKN061 13/13 Q1002
Conditions at: ESKN (SKAVSTA/STOCKHO , SE) observed 0220 UTC 19 August 2019
Temperature: 13.0°C (55°F)
Dewpoint: 13.0°C (55°F) [RH = 100%]
Pressure (altimeter): 29.59 inches Hg (1002.0 mb)
Winds: from the W (260 degrees) at 8 MPH (7 knots; 3.6 m/s)
Visibility: 6 or more miles (10+ km)
Ceiling: 6100 feet AGL
Clouds: scattered clouds at 500 feet AGL
broken clouds at 6100 feet AGL
Weather: no significant weather observed at this time

METAR text: ESKN 190150Z 26007KT 9999 BKN004 13/13 Q1002
Conditions at: ESKN (SKAVSTA/STOCKHO , SE) observed 0150 UTC 19 August 2019
Temperature: 13.0°C (55°F)
Dewpoint: 13.0°C (55°F) [RH = 100%]
Pressure (altimeter): 29.59 inches Hg (1002.0 mb)
Winds: from the W (260 degrees) at 8 MPH (7 knots; 3.6 m/s)
Visibility: 6 or more miles (10+ km)
Ceiling: 400 feet AGL
Clouds: broken clouds at 400 feet AGL
Weather: no significant weather observed at this time

METAR text: ESKN 190120Z 26007KT 9999 SCT005 BKN061 13/13 Q1002
Conditions at: ESKN (SKAVSTA/STOCKHO , SE) observed 0120 UTC 19 August 2019
Temperature: 13.0°C (55°F)
Dewpoint: 13.0°C (55°F) [RH = 100%]
Pressure (altimeter): 29.59 inches Hg (1002.0 mb)
Winds: from the W (260 degrees) at 8 MPH (7 knots; 3.6 m/s)
Visibility: 6 or more miles (10+ km)
Ceiling: 6100 feet AGL
Clouds: scattered clouds at 500 feet AGL
broken clouds at 6100 feet AGL
Weather: no significant weather observed at this time

METAR text: ESKN 190050Z 27004KT 9999 BKN047 13/13 Q1002
Conditions at: ESKN (SKAVSTA/STOCKHO , SE) observed 0050 UTC 19 August 2019
Temperature: 13.0°C (55°F)
Dewpoint: 13.0°C (55°F) [RH = 100%]
Pressure (altimeter): 29.59 inches Hg (1002.0 mb)
Winds: from the W (270 degrees) at 5 MPH (4 knots; 2.1 m/s)
Visibility: 6 or more miles (10+ km)
Ceiling: 4700 feet AGL
Clouds: broken clouds at 4700 feet AGL
Weather: no significant weather observed at this time

METAR text: ESKN 190020Z 28004KT 9999 OVC042 13/13 Q1002
Conditions at: ESKN (SKAVSTA/STOCKHO , SE) observed 0020 UTC 19 August 2019
Temperature: 13.0°C (55°F)
Dewpoint: 13.0°C (55°F) [RH = 100%]
Pressure (altimeter): 29.59 inches Hg (1002.0 mb)
Winds: from the W (280 degrees) at 5 MPH (4 knots; 2.1 m/s)
Visibility: 6 or more miles (10+ km)
Ceiling: 4200 feet AGL
Clouds: overcast cloud deck at 4200 feet AGL
Weather: no significant weather observed at this time

METAR text: ESKN 182350Z 30005KT 9999 RA FEW018 BKN035 13/13 Q1002
Conditions at: ESKN (SKAVSTA/STOCKHO , SE) observed 2350 UTC 18 August 2019
Temperature: 13.0°C (55°F)
Dewpoint: 13.0°C (55°F) [RH = 100%]
Pressure (altimeter): 29.59 inches Hg (1002.0 mb)
Winds: from the WNW (300 degrees) at 6 MPH (5 knots; 2.6 m/s)
Visibility: 6 or more miles (10+ km)
Ceiling: 3500 feet AGL
Clouds: few clouds at 1800 feet AGL
broken clouds at 3500 feet AGL
Weather: RA  (moderate rain)

METAR text: ESKN 182320Z 31004KT 280V340 9000 RA FEW016 SCT036 13/13 Q1002
Conditions at: ESKN (SKAVSTA/STOCKHO , SE) observed 2320 UTC 18 August 2019
Temperature: 13.0°C (55°F)
Dewpoint: 13.0°C (55°F) [RH = 100%]
Pressure (altimeter): 29.59 inches Hg (1002.0 mb)
Winds: from the NW (310 degrees) at 5 MPH (4 knots; 2.1 m/s)
Visibility: 6 miles ( 9 km)
Ceiling: at least 12,000 feet AGL
Clouds: few clouds at 1600 feet AGL
scattered clouds at 3600 feet AGL
Weather: RA  (moderate rain)

METAR text: ESKN 182250Z 29007KT 7000 RA BKN034 13/13 Q1002
Conditions at: ESKN (SKAVSTA/STOCKHO , SE) observed 2250 UTC 18 August 2019
Temperature: 13.0°C (55°F)
Dewpoint: 13.0°C (55°F) [RH = 100%]
Pressure (altimeter): 29.59 inches Hg (1002.0 mb)
Winds: from the WNW (290 degrees) at 8 MPH (7 knots; 3.6 m/s)
Visibility: 4 miles ( 7 km)
Ceiling: 3400 feet AGL
Clouds: broken clouds at 3400 feet AGL
Weather: RA  (moderate rain)

METAR text: ESKN 182220Z 29004KT 260V330 7000 RA SCT011 BKN029 14/14 Q1002
Conditions at: ESKN (SKAVSTA/STOCKHO , SE) observed 2220 UTC 18 August 2019
Temperature: 14.0°C (57°F)
Dewpoint: 14.0°C (57°F) [RH = 100%]
Pressure (altimeter): 29.59 inches Hg (1002.0 mb)
Winds: from the WNW (290 degrees) at 5 MPH (4 knots; 2.1 m/s)
Visibility: 4 miles ( 7 km)
Ceiling: 2900 feet AGL
Clouds: scattered clouds at 1100 feet AGL
broken clouds at 2900 feet AGL
Weather: RA  (moderate rain)

METAR text: ESKN 182150Z 00000KT 6000 RA FEW002 OVC036 15/14 Q1001
Conditions at: ESKN (SKAVSTA/STOCKHO , SE) observed 2150 UTC 18 August 2019
Temperature: 15.0°C (59°F)
Dewpoint: 14.0°C (57°F) [RH = 94%]
Pressure (altimeter): 29.56 inches Hg (1001.0 mb)
Winds: calm
Visibility: 4 miles ( 6 km)
Ceiling: 3600 feet AGL
Clouds: few clouds at 200 feet AGL
overcast cloud deck at 3600 feet AGL
Weather: RA  (moderate rain)

METAR text: ESKN 182120Z 00000KT 6000 RA BKN039 15/14 Q1002
Conditions at: ESKN (SKAVSTA/STOCKHO , SE) observed 2120 UTC 18 August 2019
Temperature: 15.0°C (59°F)
Dewpoint: 14.0°C (57°F) [RH = 94%]
Pressure (altimeter): 29.59 inches Hg (1002.0 mb)
Winds: calm
Visibility: 4 miles ( 6 km)
Ceiling: 3900 feet AGL
Clouds: broken clouds at 3900 feet AGL
Weather: RA  (moderate rain)

METAR text: ESKN 182050Z 00000KT 7000 RA BKN043 15/15 Q1002
Conditions at: ESKN (SKAVSTA/STOCKHO , SE) observed 2050 UTC 18 August 2019
Temperature: 15.0°C (59°F)
Dewpoint: 15.0°C (59°F) [RH = 100%]
Pressure (altimeter): 29.59 inches Hg (1002.0 mb)
Winds: calm
Visibility: 4 miles ( 7 km)
Ceiling: 4300 feet AGL
Clouds: broken clouds at 4300 feet AGL
Weather: RA  (moderate rain)

METAR text: ESKN 182020Z 09002KT 8000 RA OVC046 15/15 Q1002
Conditions at: ESKN (SKAVSTA/STOCKHO , SE) observed 2020 UTC 18 August 2019
Temperature: 15.0°C (59°F)
Dewpoint: 15.0°C (59°F) [RH = 100%]
Pressure (altimeter): 29.59 inches Hg (1002.0 mb)
Winds: from the E (90 degrees) at 2 MPH (2 knots; 1.0 m/s)
Visibility: 5 miles ( 8 km)
Ceiling: 4600 feet AGL
Clouds: overcast cloud deck at 4600 feet AGL
Weather: RA  (moderate rain)

METAR text: ESKN 181950Z VRB01KT 6000 RA BKN049 15/15 Q1003
Conditions at: ESKN (SKAVSTA/STOCKHO , SE) observed 1950 UTC 18 August 2019
Temperature: 15.0°C (59°F)
Dewpoint: 15.0°C (59°F) [RH = 100%]
Pressure (altimeter): 29.62 inches Hg (1003.0 mb)
Winds: variable direction winds at 1 MPH (1 knots; 0.5 m/s)
Visibility: 4 miles ( 6 km)
Ceiling: 4900 feet AGL
Clouds: broken clouds at 4900 feet AGL
Weather: RA  (moderate rain)

METAR text: ESKN 181920Z 29004KT 250V350 9999 -RA FEW015 BKN043 15/15 Q1003
Conditions at: ESKN (SKAVSTA/STOCKHO , SE) observed 1920 UTC 18 August 2019
Temperature: 15.0°C (59°F)
Dewpoint: 15.0°C (59°F) [RH = 100%]
Pressure (altimeter): 29.62 inches Hg (1003.0 mb)
Winds: from the WNW (290 degrees) at 5 MPH (4 knots; 2.1 m/s)
Visibility: 6 or more miles (10+ km)
Ceiling: 4300 feet AGL
Clouds: few clouds at 1500 feet AGL
broken clouds at 4300 feet AGL
Weather: -RA  (light rain)

METAR text: ESKN 181850Z 32003KT 9999 -RA FEW015 BKN043 16/15 Q1003
Conditions at: ESKN (SKAVSTA/STOCKHO , SE) observed 1850 UTC 18 August 2019
Temperature: 16.0°C (61°F)
Dewpoint: 15.0°C (59°F) [RH = 94%]
Pressure (altimeter): 29.62 inches Hg (1003.0 mb)
Winds: from the NW (320 degrees) at 3 MPH (3 knots; 1.5 m/s)
Visibility: 6 or more miles (10+ km)
Ceiling: 4300 feet AGL
Clouds: few clouds at 1500 feet AGL
broken clouds at 4300 feet AGL
Weather: -RA  (light rain)

METAR text: ESKN 181820Z 30001KT 9999 -RA FEW015 SCT045 16/15 Q1003
Conditions at: ESKN (SKAVSTA/STOCKHO , SE) observed 1820 UTC 18 August 2019
Temperature: 16.0°C (61°F)
Dewpoint: 15.0°C (59°F) [RH = 94%]
Pressure (altimeter): 29.62 inches Hg (1003.0 mb)
Winds: from the WNW (300 degrees) at 1 MPH (1 knots; 0.5 m/s)
Visibility: 6 or more miles (10+ km)
Ceiling: at least 12,000 feet AGL
Clouds: few clouds at 1500 feet AGL
scattered clouds at 4500 feet AGL
Weather: -RA  (light rain)

METAR text: ESKN 181750Z VRB02KT 9999 -RA FEW015 SCT045 16/15 Q1003
Conditions at: ESKN (SKAVSTA/STOCKHO , SE) observed 1750 UTC 18 August 2019
Temperature: 16.0°C (61°F)
Dewpoint: 15.0°C (59°F) [RH = 94%]
Pressure (altimeter): 29.62 inches Hg (1003.0 mb)
Winds: variable direction winds at 2 MPH (2 knots; 1.0 m/s)
Visibility: 6 or more miles (10+ km)
Ceiling: at least 12,000 feet AGL
Clouds: few clouds at 1500 feet AGL
scattered clouds at 4500 feet AGL
Weather: -RA  (light rain)

METAR text: ESKN 181720Z 21005KT 9999 -RA SCT014 BKN043 16/15 Q1004
Conditions at: ESKN (SKAVSTA/STOCKHO , SE) observed 1720 UTC 18 August 2019
Temperature: 16.0°C (61°F)
Dewpoint: 15.0°C (59°F) [RH = 94%]
Pressure (altimeter): 29.65 inches Hg (1004.0 mb)
Winds: from the SSW (210 degrees) at 6 MPH (5 knots; 2.6 m/s)
Visibility: 6 or more miles (10+ km)
Ceiling: 4300 feet AGL
Clouds: scattered clouds at 1400 feet AGL
broken clouds at 4300 feet AGL
Weather: -RA  (light rain)

METAR text: ESKN 181650Z 23005KT 9999 -RA FEW015 BKN095 17/16 Q1004
Conditions at: ESKN (SKAVSTA/STOCKHO , SE) observed 1650 UTC 18 August 2019
Temperature: 17.0°C (63°F)
Dewpoint: 16.0°C (61°F) [RH = 94%]
Pressure (altimeter): 29.65 inches Hg (1004.0 mb)
Winds: from the SW (230 degrees) at 6 MPH (5 knots; 2.6 m/s)
Visibility: 6 or more miles (10+ km)
Ceiling: 9500 feet AGL
Clouds: few clouds at 1500 feet AGL
broken clouds at 9500 feet AGL
Weather: -RA  (light rain)

METAR text: ESKN 181620Z 20004KT 9999 FEW015 18/16 Q1003
Conditions at: ESKN (SKAVSTA/STOCKHO , SE) observed 1620 UTC 18 August 2019
Temperature: 18.0°C (64°F)
Dewpoint: 16.0°C (61°F) [RH = 88%]
Pressure (altimeter): 29.62 inches Hg (1003.0 mb)
Winds: from the SSW (200 degrees) at 5 MPH (4 knots; 2.1 m/s)
Visibility: 6 or more miles (10+ km)
Ceiling: at least 12,000 feet AGL
Clouds: few clouds at 1500 feet AGL
Weather: no significant weather observed at this time

METAR text: ESKN 181550Z 17006KT 9999 FEW015 BKN090 18/17 Q1004
Conditions at: ESKN (SKAVSTA/STOCKHO , SE) observed 1550 UTC 18 August 2019
Temperature: 18.0°C (64°F)
Dewpoint: 17.0°C (63°F) [RH = 94%]
Pressure (altimeter): 29.65 inches Hg (1004.0 mb)
Winds: from the S (170 degrees) at 7 MPH (6 knots; 3.1 m/s)
Visibility: 6 or more miles (10+ km)
Ceiling: 9000 feet AGL
Clouds: few clouds at 1500 feet AGL
broken clouds at 9000 feet AGL
Weather: no significant weather observed at this time

METAR text: ESKN 181520Z 17004KT 9999 FEW015 FEW030CB BKN090 18/17 Q1003
Conditions at: ESKN (SKAVSTA/STOCKHO , SE) observed 1520 UTC 18 August 2019
Temperature: 18.0°C (64°F)
Dewpoint: 17.0°C (63°F) [RH = 94%]
Pressure (altimeter): 29.62 inches Hg (1003.0 mb)
Winds: from the S (170 degrees) at 5 MPH (4 knots; 2.1 m/s)
Visibility: 6 or more miles (10+ km)
Ceiling: 9000 feet AGL
Clouds: few clouds at 1500 feet AGL
few clouds at 3000 feet AGL
broken clouds at 9000 feet AGL
Weather: no significant weather observed at this time

METAR text: ESKN 181450Z 18005KT 9999 VCSH FEW015 SCT037CB BKN070 18/17 Q1004
Conditions at: ESKN (SKAVSTA/STOCKHO , SE) observed 1450 UTC 18 August 2019
Temperature: 18.0°C (64°F)
Dewpoint: 17.0°C (63°F) [RH = 94%]
Pressure (altimeter): 29.65 inches Hg (1004.0 mb)
Winds: from the S (180 degrees) at 6 MPH (5 knots; 2.6 m/s)
Visibility: 6 or more miles (10+ km)
Ceiling: 7000 feet AGL
Clouds: few clouds at 1500 feet AGL
scattered clouds at 3700 feet AGL
broken clouds at 7000 feet AGL
Weather: VCSH  (showers in vicinity)

METAR text: ESKN 181420Z 17007KT 9999 VCSH FEW012 SCT040CB BKN057 17/16 Q1004
Conditions at: ESKN (SKAVSTA/STOCKHO , SE) observed 1420 UTC 18 August 2019
Temperature: 17.0°C (63°F)
Dewpoint: 16.0°C (61°F) [RH = 94%]
Pressure (altimeter): 29.65 inches Hg (1004.0 mb)
Winds: from the S (170 degrees) at 8 MPH (7 knots; 3.6 m/s)
Visibility: 6 or more miles (10+ km)
Ceiling: 5700 feet AGL
Clouds: few clouds at 1200 feet AGL
scattered clouds at 4000 feet AGL
broken clouds at 5700 feet AGL
Weather: VCSH  (showers in vicinity)

METAR text: ESKN 181350Z 18011KT 160V220 9999 SHRA FEW012 BKN040CB 19/16 Q1004
Conditions at: ESKN (SKAVSTA/STOCKHO , SE) observed 1350 UTC 18 August 2019
Temperature: 19.0°C (66°F)
Dewpoint: 16.0°C (61°F) [RH = 83%]
Pressure (altimeter): 29.65 inches Hg (1004.0 mb)
Winds: from the S (180 degrees) at 13 MPH (11 knots; 5.7 m/s)
Visibility: 6 or more miles (10+ km)
Ceiling: 4000 feet AGL
Clouds: few clouds at 1200 feet AGL
broken clouds at 4000 feet AGL
Weather: SHRA  (rain showers)

METAR text: ESKN 181320Z 16012KT 9999 VCSH FEW011 SCT040CB 19/16 Q1003
Conditions at: ESKN (SKAVSTA/STOCKHO , SE) observed 1320 UTC 18 August 2019
Temperature: 19.0°C (66°F)
Dewpoint: 16.0°C (61°F) [RH = 83%]
Pressure (altimeter): 29.62 inches Hg (1003.0 mb)
Winds: from the SSE (160 degrees) at 14 MPH (12 knots; 6.2 m/s)
Visibility: 6 or more miles (10+ km)
Ceiling: at least 12,000 feet AGL
Clouds: few clouds at 1100 feet AGL
scattered clouds at 4000 feet AGL
Weather: VCSH  (showers in vicinity)

METAR text: ESKN 181250Z 16011KT 9999 SCT012 19/16 Q1004
Conditions at: ESKN (SKAVSTA/STOCKHO , SE) observed 1250 UTC 18 August 2019
Temperature: 19.0°C (66°F)
Dewpoint: 16.0°C (61°F) [RH = 83%]
Pressure (altimeter): 29.65 inches Hg (1004.0 mb)
Winds: from the SSE (160 degrees) at 13 MPH (11 knots; 5.7 m/s)
Visibility: 6 or more miles (10+ km)
Ceiling: at least 12,000 feet AGL
Clouds: scattered clouds at 1200 feet AGL
Weather: no significant weather observed at this time

METAR text: ESKN 181220Z 15011KT 120V190 9999 SCT013 SCT020 19/16 Q1004
Conditions at: ESKN (SKAVSTA/STOCKHO , SE) observed 1220 UTC 18 August 2019
Temperature: 19.0°C (66°F)
Dewpoint: 16.0°C (61°F) [RH = 83%]
Pressure (altimeter): 29.65 inches Hg (1004.0 mb)
Winds: from the SSE (150 degrees) at 13 MPH (11 knots; 5.7 m/s)
Visibility: 6 or more miles (10+ km)
Ceiling: at least 12,000 feet AGL
Clouds: scattered clouds at 1300 feet AGL
scattered clouds at 2000 feet AGL
Weather: no significant weather observed at this time

METAR text: ESKN 181150Z 16010KT 9999 SCT015 SCT024 19/16 Q1004
Conditions at: ESKN (SKAVSTA/STOCKHO , SE) observed 1150 UTC 18 August 2019
Temperature: 19.0°C (66°F)
Dewpoint: 16.0°C (61°F) [RH = 83%]
Pressure (altimeter): 29.65 inches Hg (1004.0 mb)
Winds: from the SSE (160 degrees) at 12 MPH (10 knots; 5.1 m/s)
Visibility: 6 or more miles (10+ km)
Ceiling: at least 12,000 feet AGL
Clouds: scattered clouds at 1500 feet AGL
scattered clouds at 2400 feet AGL
Weather: no significant weather observed at this time

METAR text: ESKN 181120Z 15011KT 120V190 9999 SCT017 SCT022 20/16 Q1004
Conditions at: ESKN (SKAVSTA/STOCKHO , SE) observed 1120 UTC 18 August 2019
Temperature: 20.0°C (68°F)
Dewpoint: 16.0°C (61°F) [RH = 78%]
Pressure (altimeter): 29.65 inches Hg (1004.0 mb)
Winds: from the SSE (150 degrees) at 13 MPH (11 knots; 5.7 m/s)
Visibility: 6 or more miles (10+ km)
Ceiling: at least 12,000 feet AGL
Clouds: scattered clouds at 1700 feet AGL
scattered clouds at 2200 feet AGL
Weather: no significant weather observed at this time

METAR text: ESKN 181050Z 13010KT 110V170 9999 SCT020 BKN170 20/15 Q1004
Conditions at: ESKN (SKAVSTA/STOCKHO , SE) observed 1050 UTC 18 August 2019
Temperature: 20.0°C (68°F)
Dewpoint: 15.0°C (59°F) [RH = 73%]
Pressure (altimeter): 29.65 inches Hg (1004.0 mb)
Winds: from the SE (130 degrees) at 12 MPH (10 knots; 5.1 m/s)
Visibility: 6 or more miles (10+ km)
Ceiling: 17000 feet AGL
Clouds: scattered clouds at 2000 feet AGL
broken clouds at 17000 feet AGL
Weather: no significant weather observed at this time

METAR text: ESKN 181020Z 13010KT 110V170 9999 SCT015 SCT090 21/16 Q1005
Conditions at: ESKN (SKAVSTA/STOCKHO , SE) observed 1020 UTC 18 August 2019
Temperature: 21.0°C (70°F)
Dewpoint: 16.0°C (61°F) [RH = 73%]
Pressure (altimeter): 29.68 inches Hg (1005.0 mb)
Winds: from the SE (130 degrees) at 12 MPH (10 knots; 5.1 m/s)
Visibility: 6 or more miles (10+ km)
Ceiling: at least 12,000 feet AGL
Clouds: scattered clouds at 1500 feet AGL
scattered clouds at 9000 feet AGL
Weather: no significant weather observed at this time

METAR text: ESKN 180950Z 10010KT 9999 FEW013 SCT080 20/16 Q1005
Conditions at: ESKN (SKAVSTA/STOCKHO , SE) observed 0950 UTC 18 August 2019
Temperature: 20.0°C (68°F)
Dewpoint: 16.0°C (61°F) [RH = 78%]
Pressure (altimeter): 29.68 inches Hg (1005.0 mb)
Winds: from the E (100 degrees) at 12 MPH (10 knots; 5.1 m/s)
Visibility: 6 or more miles (10+ km)
Ceiling: at least 12,000 feet AGL
Clouds: few clouds at 1300 feet AGL
scattered clouds at 8000 feet AGL
Weather: no significant weather observed at this time

METAR text: ESKN 180920Z 12009KT 9999 FEW020 BKN100 19/16 Q1005
Conditions at: ESKN (SKAVSTA/STOCKHO , SE) observed 0920 UTC 18 August 2019
Temperature: 19.0°C (66°F)
Dewpoint: 16.0°C (61°F) [RH = 83%]
Pressure (altimeter): 29.68 inches Hg (1005.0 mb)
Winds: from the ESE (120 degrees) at 10 MPH (9 knots; 4.6 m/s)
Visibility: 6 or more miles (10+ km)
Ceiling: 10000 feet AGL
Clouds: few clouds at 2000 feet AGL
broken clouds at 10000 feet AGL
Weather: no significant weather observed at this time

METAR text: ESKN 180850Z 19005KT 150V230 9999 FEW015 BKN098 20/14 Q1005
Conditions at: ESKN (SKAVSTA/STOCKHO , SE) observed 0850 UTC 18 August 2019
Temperature: 20.0°C (68°F)
Dewpoint: 14.0°C (57°F) [RH = 68%]
Pressure (altimeter): 29.68 inches Hg (1005.0 mb)
Winds: from the S (190 degrees) at 6 MPH (5 knots; 2.6 m/s)
Visibility: 6 or more miles (10+ km)
Ceiling: 9800 feet AGL
Clouds: few clouds at 1500 feet AGL
broken clouds at 9800 feet AGL
Weather: no significant weather observed at this time

METAR text: ESKN 180820Z 21005KT 9999 FEW015 BKN090 20/15 Q1005
Conditions at: ESKN (SKAVSTA/STOCKHO , SE) observed 0820 UTC 18 August 2019
Temperature: 20.0°C (68°F)
Dewpoint: 15.0°C (59°F) [RH = 73%]
Pressure (altimeter): 29.68 inches Hg (1005.0 mb)
Winds: from the SSW (210 degrees) at 6 MPH (5 knots; 2.6 m/s)
Visibility: 6 or more miles (10+ km)
Ceiling: 9000 feet AGL
Clouds: few clouds at 1500 feet AGL
broken clouds at 9000 feet AGL
Weather: no significant weather observed at this time

METAR text: ESKN 180750Z VRB03KT 9999 FEW015 BKN090 18/15 Q1005
Conditions at: ESKN (SKAVSTA/STOCKHO , SE) observed 0750 UTC 18 August 2019
Temperature: 18.0°C (64°F)
Dewpoint: 15.0°C (59°F) [RH = 83%]
Pressure (altimeter): 29.68 inches Hg (1005.0 mb)
Winds: variable direction winds at 3 MPH (3 knots; 1.5 m/s)
Visibility: 6 or more miles (10+ km)
Ceiling: 9000 feet AGL
Clouds: few clouds at 1500 feet AGL
broken clouds at 9000 feet AGL
Weather: no significant weather observed at this time

METAR text: ESKN 180720Z 21004KT 160V240 9999 FEW013 BKN072 18/16 Q1005
Conditions at: ESKN (SKAVSTA/STOCKHO , SE) observed 0720 UTC 18 August 2019
Temperature: 18.0°C (64°F)
Dewpoint: 16.0°C (61°F) [RH = 88%]
Pressure (altimeter): 29.68 inches Hg (1005.0 mb)
Winds: from the SSW (210 degrees) at 5 MPH (4 knots; 2.1 m/s)
Visibility: 6 or more miles (10+ km)
Ceiling: 7200 feet AGL
Clouds: few clouds at 1300 feet AGL
broken clouds at 7200 feet AGL
Weather: no significant weather observed at this time

METAR text: ESKN 180650Z 22005KT 190V250 9999 FEW013 18/15 Q1005
Conditions at: ESKN (SKAVSTA/STOCKHO , SE) observed 0650 UTC 18 August 2019
Temperature: 18.0°C (64°F)
Dewpoint: 15.0°C (59°F) [RH = 83%]
Pressure (altimeter): 29.68 inches Hg (1005.0 mb)
Winds: from the SW (220 degrees) at 6 MPH (5 knots; 2.6 m/s)
Visibility: 6 or more miles (10+ km)
Ceiling: at least 12,000 feet AGL
Clouds: few clouds at 1300 feet AGL
Weather: no significant weather observed at this time

Forecast for: ESKN (SKAVSTA/STOCKHO , SE)
Text: TAF ESKN 191730Z 1918/2018 22009KT CAVOK
Forecast period: 1800 UTC 19 August 2019 to 1800 UTC 20 August 2019
Forecast type: FROM: standard forecast or significant change
Winds: from the SW (220 degrees) at 10 MPH (9 knots; 4.6 m/s)
Visibility: 6 or more miles 10+ km)
Ceiling: unknown
Clouds: missing
Weather: NSW  (no significant weather)
Text: PROB40 1918/1921 SHRA SCT045CB
Forecast period: 1800 to 2100 UTC 19 August 2019
Forecast type: PROBABLE: 40 percent likelihood of the following during this time
Visibility: missing
Ceiling: at least 12,000 feet AGL
Clouds: scattered clouds at 4500 feet AGL
Weather: SHRA  (rain showers)
Text: PROB40 2002/2004 3500 BR
Forecast period: 0200 to 0400 UTC 20 August 2019
Forecast type: PROBABLE: 40 percent likelihood of the following during this time
Visibility: 2.17 miles (3.49 km)
Ceiling: unknown
Clouds: missing
Weather: BR  (mist)